createdAt,value
2023-01-15T00:02:28.699Z,5.02
2023-01-15T00:05:11.837Z,5.02
2023-01-15T00:07:55.319Z,4.97
2023-01-15T00:10:39.918Z,5.09
2023-01-15T00:13:23.558Z,5.14
2023-01-15T00:16:07.974Z,5.20
2023-01-15T00:18:52.546Z,5.24
2023-01-15T00:21:35.911Z,5.28
2023-01-15T00:24:35.942Z,5.31
2023-01-15T00:27:38.154Z,5.33
2023-01-15T00:30:21.393Z,5.18
2023-01-15T00:33:04.587Z,5.28
2023-01-15T00:35:47.641Z,5.33
2023-01-15T00:38:30.702Z,5.18
2023-01-15T00:41:14.090Z,5.25
2023-01-15T00:43:58.664Z,5.43
2023-01-15T00:46:41.935Z,5.38
2023-01-15T00:49:24.995Z,5.49
2023-01-15T00:52:08.095Z,5.52
2023-01-15T00:54:51.146Z,5.66
2023-01-15T00:57:34.534Z,5.59
2023-01-15T01:00:19.694Z,5.58
2023-01-15T01:03:02.964Z,5.46
2023-01-15T01:05:45.972Z,5.43
2023-01-15T01:08:29.739Z,5.31
2023-01-15T01:11:15.299Z,5.34
2023-01-15T01:13:58.355Z,5.36
2023-01-15T01:16:43.514Z,5.37
2023-01-15T01:19:26.896Z,5.28
2023-01-15T01:22:09.933Z,5.27
2023-01-15T01:24:53.052Z,5.31
2023-01-15T01:27:36.141Z,5.28
2023-01-15T01:30:19.476Z,5.23
2023-01-15T01:33:04.051Z,5.23
2023-01-15T01:35:50.415Z,5.24
2023-01-15T01:38:33.564Z,5.21
2023-01-15T01:41:16.951Z,5.10
2023-01-15T01:44:02.130Z,5.12
2023-01-15T01:46:45.184Z,5.10
2023-01-15T01:49:29.578Z,5.10
2023-01-15T01:52:19.678Z,5.17
2023-01-15T01:55:04.226Z,5.24
2023-01-15T01:57:49.677Z,5.35
2023-01-15T02:00:34.901Z,5.37
2023-01-15T02:03:19.803Z,5.37
2023-01-15T02:06:07.980Z,5.29
2023-01-15T02:08:51.337Z,5.23
2023-01-15T02:11:35.684Z,5.27
2023-01-15T02:14:27.032Z,5.34
2023-01-15T02:17:17.378Z,5.30
2023-01-15T02:20:17.756Z,5.38
2023-01-15T02:23:15.369Z,5.36
2023-01-15T02:26:14.913Z,5.45
2023-01-15T02:29:01.782Z,5.42
2023-01-15T02:31:51.182Z,5.46
2023-01-15T02:34:38.202Z,5.52
2023-01-15T02:37:27.808Z,5.44
2023-01-15T02:40:13.706Z,5.51
2023-01-15T02:42:58.702Z,5.22
2023-01-15T02:45:46.515Z,5.39
2023-01-15T02:48:33.839Z,5.37
2023-01-15T02:51:21.015Z,5.39
2023-01-15T02:54:08.315Z,5.39
2023-01-15T02:56:52.647Z,5.31
2023-01-15T02:59:40.089Z,4.96
2023-01-15T03:02:30.847Z,5.00
2023-01-15T03:05:21.856Z,4.93
2023-01-15T03:08:08.264Z,4.82
2023-01-15T03:11:00.823Z,4.88
2023-01-15T03:13:49.879Z,4.90
2023-01-15T03:16:36.200Z,5.07
2023-01-15T03:19:25.557Z,5.11
2023-01-15T03:22:14.075Z,5.18
2023-01-15T03:25:02.086Z,5.21
2023-01-15T03:27:45.242Z,5.31
2023-01-15T03:30:29.109Z,5.00
2023-01-15T03:33:12.623Z,5.10
2023-01-15T03:35:59.292Z,5.06
2023-01-15T03:38:42.606Z,5.02
2023-01-15T03:41:32.866Z,5.08
2023-01-15T03:44:25.778Z,5.16
2023-01-15T03:47:25.757Z,5.09
2023-01-15T03:50:18.505Z,5.10
2023-01-15T03:53:11.128Z,5.16
2023-01-15T03:56:02.622Z,5.03
2023-01-15T03:58:50.187Z,4.93
2023-01-15T04:01:38.395Z,5.01
2023-01-15T04:04:21.735Z,5.02
2023-01-15T04:07:05.629Z,4.99
2023-01-15T04:09:50.433Z,5.08
2023-01-15T04:12:36.146Z,5.01
2023-01-15T04:15:21.858Z,4.62
2023-01-15T04:18:05.144Z,4.91
2023-01-15T04:20:48.751Z,4.89
2023-01-15T04:23:31.857Z,4.87
2023-01-15T04:26:16.396Z,4.96
2023-01-15T04:28:59.477Z,5.07
2023-01-15T04:31:42.488Z,5.12
2023-01-15T04:34:26.806Z,4.87
2023-01-15T04:37:09.946Z,5.00
2023-01-15T04:39:53.052Z,4.68
2023-01-15T04:42:54.794Z,4.81
2023-01-15T04:45:37.924Z,5.03
2023-01-15T04:48:21.042Z,4.91
2023-01-15T04:51:04.987Z,5.02
2023-01-15T04:53:48.338Z,5.11
2023-01-15T04:56:31.958Z,4.98
2023-01-15T04:59:17.663Z,5.06
2023-01-15T05:02:06.319Z,5.00
2023-01-15T05:04:50.870Z,4.94
2023-01-15T05:07:33.943Z,4.91
2023-01-15T05:10:17.441Z,4.97
2023-01-15T05:13:00.423Z,5.00
2023-01-15T05:15:46.516Z,4.83
2023-01-15T05:18:29.716Z,4.92
2023-01-15T05:21:20.703Z,5.04
2023-01-15T05:24:05.571Z,4.61
2023-01-15T05:26:48.700Z,4.88
2023-01-15T05:29:31.908Z,4.82
2023-01-15T05:32:16.447Z,4.98
2023-01-15T05:34:59.523Z,4.96
2023-01-15T05:37:42.652Z,5.00
2023-01-15T05:40:26.279Z,5.07
2023-01-15T05:43:09.400Z,5.11
2023-01-15T05:45:52.774Z,5.08
2023-01-15T05:48:37.392Z,5.06
2023-01-15T05:51:20.764Z,5.12
2023-01-15T05:54:04.419Z,5.08
2023-01-15T05:56:48.751Z,5.12
2023-01-15T05:59:33.535Z,5.21
2023-01-15T06:02:16.683Z,5.07
2023-01-15T06:05:01.295Z,5.13
2023-01-15T06:07:44.412Z,4.90
2023-01-15T06:10:27.622Z,4.95
2023-01-15T06:13:10.690Z,5.09
2023-01-15T06:15:54.005Z,5.06
2023-01-15T06:18:37.404Z,4.88
2023-01-15T06:21:22.012Z,5.17
2023-01-15T06:24:05.868Z,5.33
2023-01-15T06:26:50.222Z,5.40
2023-01-15T06:29:33.590Z,5.54
2023-01-15T06:32:17.284Z,5.38
2023-01-15T06:35:00.663Z,5.20
2023-01-15T06:37:45.096Z,5.42
2023-01-15T06:40:29.247Z,5.11
2023-01-15T06:43:35.083Z,5.33
2023-01-15T06:46:36.103Z,5.67
2023-01-15T06:49:19.169Z,5.77
2023-01-15T06:52:03.005Z,5.86
2023-01-15T06:54:47.909Z,5.74
2023-01-15T06:57:31.142Z,5.50
2023-01-15T07:00:18.212Z,5.74
2023-01-15T07:03:01.775Z,5.87
2023-01-15T07:05:45.109Z,6.06
2023-01-15T07:08:28.809Z,6.05
2023-01-15T07:11:14.466Z,6.02
2023-01-15T07:14:06.026Z,6.28
2023-01-15T07:16:49.654Z,6.53
2023-01-15T07:19:32.772Z,7.11
2023-01-15T07:22:16.279Z,7.72
2023-01-15T07:24:59.557Z,8.34
2023-01-15T07:27:44.320Z,8.17
2023-01-15T07:30:27.494Z,8.29
2023-01-15T07:33:14.924Z,8.65
2023-01-15T07:35:58.488Z,11.99
2023-01-15T07:38:41.589Z,17.99
2023-01-15T07:41:42.031Z,21.72
2023-01-15T07:44:44.330Z,23.49
2023-01-15T07:47:45.934Z,25.57
2023-01-15T07:50:29.080Z,25.77
2023-01-15T07:53:20.791Z,27.55
2023-01-15T07:56:04.150Z,29.84
2023-01-15T07:58:50.305Z,30.58
2023-01-15T08:01:34.914Z,31.02
2023-01-15T08:04:18.229Z,31.11
2023-01-15T08:07:01.994Z,27.55
2023-01-15T08:09:45.353Z,24.11
2023-01-15T08:12:46.403Z,21.52
2023-01-15T08:15:40.784Z,17.41
2023-01-15T08:18:25.485Z,17.53
2023-01-15T08:21:14.528Z,15.61
2023-01-15T08:23:57.615Z,15.36
2023-01-15T08:26:40.937Z,13.88
2023-01-15T08:29:24.507Z,13.84
2023-01-15T08:32:07.783Z,13.24
2023-01-15T08:34:52.580Z,12.49
2023-01-15T08:37:36.100Z,11.90
2023-01-15T08:40:19.469Z,11.44
2023-01-15T08:43:02.588Z,10.84
2023-01-15T08:45:45.880Z,10.68
2023-01-15T08:48:31.499Z,10.23
2023-01-15T08:51:16.115Z,10.16
2023-01-15T08:53:59.488Z,9.66
2023-01-15T08:56:42.893Z,9.60
2023-01-15T08:59:26.078Z,9.38
2023-01-15T09:02:10.766Z,9.11
2023-01-15T09:04:53.965Z,8.92
2023-01-15T09:07:39.826Z,8.90
2023-01-15T09:10:23.641Z,9.12
2023-01-15T09:13:07.306Z,9.27
2023-01-15T09:15:50.408Z,9.39
2023-01-15T09:18:35.722Z,9.48
2023-01-15T09:21:19.157Z,9.66
2023-01-15T09:24:04.411Z,9.65
2023-01-15T09:26:47.945Z,9.37
2023-01-15T09:29:31.373Z,9.01
2023-01-15T09:32:14.755Z,9.18
2023-01-15T09:34:58.223Z,9.05
2023-01-15T09:37:41.504Z,9.12
2023-01-15T09:40:49.023Z,8.78
2023-01-15T09:43:50.112Z,8.93
2023-01-15T09:46:42.254Z,9.11
2023-01-15T09:49:35.735Z,9.21
2023-01-15T09:52:28.363Z,9.30
2023-01-15T09:55:16.674Z,9.22
2023-01-15T09:58:06.338Z,8.84
2023-01-15T10:00:51.781Z,9.28
2023-01-15T10:03:43.385Z,9.35
2023-01-15T10:06:29.813Z,9.60
2023-01-15T10:09:17.642Z,9.38
2023-01-15T10:12:23.657Z,9.42
2023-01-15T10:15:19.964Z,9.37
2023-01-15T10:18:06.022Z,9.29
2023-01-15T10:21:21.443Z,9.29
2023-01-15T10:24:11.275Z,9.51
2023-01-15T10:26:57.468Z,10.07
2023-01-15T10:29:47.165Z,10.59
2023-01-15T10:33:00.593Z,10.47
2023-01-15T10:35:59.867Z,11.32
2023-01-15T10:38:50.812Z,11.41
2023-01-15T10:41:47.981Z,11.97
2023-01-15T10:44:41.969Z,12.50
2023-01-15T10:47:37.464Z,12.76
2023-01-15T10:50:24.723Z,12.76
2023-01-15T10:53:16.633Z,13.19
2023-01-15T10:56:04.486Z,13.48
2023-01-15T10:58:57.848Z,15.11
2023-01-15T11:01:43.089Z,17.61
2023-01-15T11:04:32.168Z,18.28
2023-01-15T11:07:16.559Z,19.82
2023-01-15T11:10:04.693Z,18.90
2023-01-15T11:13:10.573Z,17.81
2023-01-15T11:16:11.396Z,18.51
2023-01-15T11:19:12.847Z,22.80
2023-01-15T11:21:57.327Z,24.99
2023-01-15T11:24:47.905Z,24.72
2023-01-15T11:27:34.470Z,20.08
2023-01-15T11:30:32.145Z,19.93
2023-01-15T11:33:24.710Z,22.31
2023-01-15T11:36:10.391Z,20.80
2023-01-15T11:38:55.991Z,17.93
2023-01-15T11:42:00.128Z,16.54
2023-01-15T11:45:09.719Z,14.98
2023-01-15T11:48:11.430Z,14.74
2023-01-15T11:50:57.418Z,14.30
2023-01-15T11:53:43.212Z,15.10
2023-01-15T11:56:31.433Z,15.00
2023-01-15T11:59:17.747Z,13.83
2023-01-15T12:02:04.472Z,13.29
2023-01-15T12:04:56.517Z,12.44
2023-01-15T12:07:41.349Z,12.01
2023-01-15T12:10:54.404Z,12.12
2023-01-15T12:13:45.827Z,12.00
2023-01-15T12:16:36.275Z,12.12
2023-01-15T12:19:26.810Z,10.92
2023-01-15T12:22:40.773Z,10.46
2023-01-15T12:25:46.597Z,10.31
2023-01-15T12:28:34.236Z,10.45
2023-01-15T12:31:24.620Z,10.17
2023-01-15T12:34:18.190Z,9.56
2023-01-15T12:37:07.565Z,9.34
2023-01-15T12:39:57.372Z,9.42
2023-01-15T12:42:58.014Z,9.85
2023-01-15T12:45:45.585Z,9.84
2023-01-15T12:48:39.679Z,9.73
2023-01-15T12:51:28.497Z,9.39
2023-01-15T12:54:16.093Z,9.36
2023-01-15T12:57:06.463Z,9.27
2023-01-15T12:59:55.341Z,9.19
2023-01-15T13:02:47.669Z,8.76
2023-01-15T13:05:35.964Z,8.76
2023-01-15T13:08:26.157Z,8.51
2023-01-15T13:11:13.084Z,8.67
2023-01-15T13:13:59.412Z,8.79
2023-01-15T13:16:51.988Z,8.69
2023-01-15T13:19:46.587Z,8.43
2023-01-15T13:22:33.672Z,8.23
2023-01-15T13:25:36.141Z,7.89
2023-01-15T13:28:33.373Z,7.82
2023-01-15T13:31:40.757Z,7.73
2023-01-15T13:34:31.892Z,7.49
2023-01-15T13:37:23.371Z,7.47
2023-01-15T13:40:16.746Z,7.36
2023-01-15T13:43:00.643Z,7.21
2023-01-15T13:45:45.032Z,7.09
2023-01-15T13:48:34.441Z,6.95
2023-01-15T13:51:30.378Z,6.94
2023-01-15T13:54:17.440Z,6.96
2023-01-15T13:57:10.760Z,6.86
2023-01-15T13:59:54.012Z,6.73
2023-01-15T14:02:41.116Z,6.91
2023-01-15T14:05:31.358Z,6.74
2023-01-15T14:08:17.898Z,6.84
2023-01-15T14:11:04.952Z,6.72
2023-01-15T14:14:11.628Z,6.71
2023-01-15T14:17:03.927Z,6.52
2023-01-15T14:20:22.251Z,6.47
2023-01-15T14:23:38.488Z,6.48
2023-01-15T14:26:29.650Z,6.40
2023-01-15T14:29:42.983Z,6.23
2023-01-15T14:32:48.658Z,6.07
2023-01-15T14:35:37.618Z,6.08
2023-01-15T14:38:24.480Z,5.83
2023-01-15T14:41:13.283Z,5.73
2023-01-15T14:43:57.887Z,5.64
2023-01-15T14:46:44.131Z,5.66
2023-01-15T14:49:31.382Z,5.70
2023-01-15T14:52:15.224Z,5.57
2023-01-15T14:55:01.444Z,5.45
2023-01-15T14:57:50.027Z,5.26
2023-01-15T15:00:38.077Z,5.41
2023-01-15T15:03:29.322Z,5.21
2023-01-15T15:06:13.769Z,5.15
2023-01-15T15:09:04.878Z,5.06
2023-01-15T15:12:08.083Z,5.02
2023-01-15T15:15:00.745Z,4.83
2023-01-15T15:17:57.276Z,4.66
2023-01-15T15:20:51.475Z,4.64
2023-01-15T15:23:41.355Z,4.59
2023-01-15T15:26:28.376Z,4.43
2023-01-15T15:29:14.176Z,4.55
2023-01-15T15:32:01.823Z,4.53
2023-01-15T15:34:48.565Z,4.35
2023-01-15T15:37:35.160Z,4.23
2023-01-15T15:40:20.701Z,4.14
2023-01-15T15:43:30.596Z,4.15
2023-01-15T15:46:43.684Z,4.00
2023-01-15T15:49:26.914Z,4.01
2023-01-15T15:52:21.986Z,4.02
2023-01-15T15:55:07.343Z,3.88
2023-01-15T15:57:54.497Z,3.85
2023-01-15T16:00:43.349Z,3.88
2023-01-15T16:03:29.713Z,3.98
2023-01-15T16:06:21.478Z,4.04
2023-01-15T16:09:06.585Z,4.03
2023-01-15T16:12:07.336Z,3.95
2023-01-15T16:14:51.560Z,3.88
2023-01-15T16:17:35.871Z,3.83
2023-01-15T16:20:21.485Z,3.86
2023-01-15T16:23:06.562Z,3.89
2023-01-15T16:26:01.049Z,3.95
2023-01-15T16:28:54.092Z,3.94
2023-01-15T16:31:41.714Z,3.91
2023-01-15T16:34:27.774Z,3.90
2023-01-15T16:37:26.581Z,3.85
2023-01-15T16:40:27.738Z,3.80
2023-01-15T16:43:15.961Z,3.68
2023-01-15T16:46:07.125Z,3.63
2023-01-15T16:48:50.559Z,3.54
2023-01-15T16:51:36.510Z,3.62
2023-01-15T16:54:43.366Z,3.47
2023-01-15T16:57:35.367Z,3.50
2023-01-15T17:00:32.851Z,3.42
2023-01-15T17:03:22.632Z,3.36
2023-01-15T17:06:16.099Z,3.31
2023-01-15T17:08:59.730Z,3.34
2023-01-15T17:11:43.081Z,3.26
2023-01-15T17:14:29.879Z,3.16
2023-01-15T17:17:23.727Z,3.05
2023-01-15T17:20:12.776Z,3.15
2023-01-15T17:22:57.413Z,3.23
2023-01-15T17:25:41.067Z,3.08
2023-01-15T17:28:26.040Z,3.18
2023-01-15T17:31:21.245Z,3.24
2023-01-15T17:34:05.217Z,3.13
2023-01-15T17:36:51.200Z,3.00
2023-01-15T17:39:34.317Z,2.86
2023-01-15T17:42:19.575Z,2.84
2023-01-15T17:45:02.600Z,2.78
2023-01-15T17:47:45.961Z,2.91
2023-01-15T17:50:29.531Z,2.97
2023-01-15T17:53:14.183Z,2.83
2023-01-15T17:56:15.173Z,2.80
2023-01-15T17:59:15.780Z,2.67
2023-01-15T18:02:16.779Z,2.74
2023-01-15T18:05:17.761Z,2.72
2023-01-15T18:08:04.260Z,2.64
2023-01-15T18:10:48.727Z,2.54
2023-01-15T18:13:31.759Z,2.49
2023-01-15T18:16:17.336Z,2.43
2023-01-15T18:19:00.599Z,2.37
2023-01-15T18:21:43.751Z,2.42
2023-01-15T18:24:26.838Z,2.35
2023-01-15T18:27:11.871Z,2.36
2023-01-15T18:29:55.232Z,2.33
2023-01-15T18:32:38.429Z,2.28
2023-01-15T18:35:23.593Z,2.19
2023-01-15T18:38:06.752Z,2.18
2023-01-15T18:40:50.540Z,2.07
2023-01-15T18:43:52.719Z,2.03
2023-01-15T18:46:47.402Z,1.81
2023-01-15T18:49:31.045Z,1.96
2023-01-15T18:52:33.383Z,2.01
2023-01-15T18:55:16.519Z,1.79
2023-01-15T18:58:00.119Z,1.72
2023-01-15T19:00:44.991Z,1.75
2023-01-15T19:03:28.585Z,1.78
2023-01-15T19:06:12.824Z,1.74
2023-01-15T19:08:56.154Z,1.69
2023-01-15T19:11:39.225Z,1.62
2023-01-15T19:14:40.226Z,1.72
2023-01-15T19:17:44.450Z,1.81
2023-01-15T19:20:27.573Z,1.84
2023-01-15T19:23:10.731Z,1.78
2023-01-15T19:25:53.823Z,1.77
2023-01-15T19:28:36.904Z,1.82
2023-01-15T19:31:39.373Z,1.76
2023-01-15T19:34:33.672Z,1.81
2023-01-15T19:37:17.251Z,1.68
2023-01-15T19:40:00.576Z,1.80
2023-01-15T19:43:01.065Z,1.58
2023-01-15T19:46:03.601Z,1.66
2023-01-15T19:49:03.913Z,1.69
2023-01-15T19:52:06.043Z,1.78
2023-01-15T19:54:57.660Z,1.76
2023-01-15T19:57:42.198Z,1.57
2023-01-15T20:00:25.579Z,1.55
2023-01-15T20:03:10.491Z,1.54
2023-01-15T20:05:53.672Z,1.53
2023-01-15T20:08:38.731Z,1.57
2023-01-15T20:11:21.782Z,1.51
2023-01-15T20:14:03.897Z,1.49
2023-01-15T20:16:47.012Z,1.39
2023-01-15T20:19:30.170Z,1.42
2023-01-15T20:22:13.196Z,1.27
2023-01-15T20:24:57.743Z,1.33
2023-01-15T20:27:41.417Z,1.33
2023-01-15T20:30:25.725Z,1.28
2023-01-15T20:33:09.112Z,1.26
2023-01-15T20:35:54.115Z,1.19
2023-01-15T20:38:37.381Z,1.14
2023-01-15T20:41:39.773Z,1.14
2023-01-15T20:44:40.545Z,1.04
2023-01-15T20:47:54.375Z,1.07
2023-01-15T20:50:39.338Z,0.90
2023-01-15T20:53:25.202Z,1.01
2023-01-15T20:56:14.187Z,1.00
2023-01-15T20:59:04.826Z,0.97
2023-01-15T21:01:50.391Z,1.01
2023-01-15T21:04:35.245Z,0.98
2023-01-15T21:07:18.641Z,0.86
2023-01-15T21:10:01.770Z,0.76
2023-01-15T21:12:45.022Z,0.73
2023-01-15T21:15:29.487Z,0.69
2023-01-15T21:18:12.626Z,0.67
2023-01-15T21:20:55.975Z,0.60
2023-01-15T21:23:40.227Z,0.53
2023-01-15T21:26:25.537Z,0.64
2023-01-15T21:29:08.620Z,0.46
2023-01-15T21:31:54.098Z,0.55
2023-01-15T21:34:37.228Z,0.58
2023-01-15T21:37:20.423Z,0.70
2023-01-15T21:40:03.565Z,0.74
2023-01-15T21:43:03.857Z,0.80
2023-01-15T21:45:47.324Z,0.86
2023-01-15T21:48:32.002Z,0.78
2023-01-15T21:51:15.151Z,0.83
2023-01-15T21:54:00.332Z,0.83
2023-01-15T21:56:45.375Z,0.91
2023-01-15T21:59:29.497Z,0.77
2023-01-15T22:02:16.937Z,0.87
2023-01-15T22:05:02.124Z,0.83
2023-01-15T22:07:45.259Z,0.84
2023-01-15T22:10:28.609Z,0.86
2023-01-15T22:13:11.857Z,0.76
2023-01-15T22:15:55.390Z,0.77
2023-01-15T22:18:38.470Z,0.81
2023-01-15T22:21:22.881Z,0.75
2023-01-15T22:24:06.904Z,0.78
2023-01-15T22:26:54.455Z,0.67
2023-01-15T22:29:40.291Z,0.56
2023-01-15T22:32:23.395Z,0.52
2023-01-15T22:35:07.704Z,0.41
2023-01-15T22:37:52.135Z,0.34
2023-01-15T22:40:35.547Z,0.43
2023-01-15T22:43:18.780Z,0.43
2023-01-15T22:46:09.894Z,0.38
2023-01-15T22:48:53.721Z,0.40
2023-01-15T22:51:36.851Z,0.47
2023-01-15T22:54:21.377Z,0.48
2023-01-15T22:57:05.266Z,0.48
2023-01-15T22:59:50.368Z,0.48
2023-01-15T23:02:50.961Z,0.50
2023-01-15T23:05:38.989Z,0.52
2023-01-15T23:08:22.391Z,0.48
2023-01-15T23:11:16.277Z,0.47
2023-01-15T23:13:59.449Z,0.37
2023-01-15T23:16:42.530Z,0.36
2023-01-15T23:19:28.214Z,0.39
2023-01-15T23:22:12.109Z,0.39
2023-01-15T23:24:55.202Z,0.43
2023-01-15T23:27:39.720Z,0.41
2023-01-15T23:30:22.782Z,0.42
2023-01-15T23:33:05.901Z,0.43
2023-01-15T23:35:49.659Z,0.52
2023-01-15T23:38:33.373Z,0.49
2023-01-15T23:41:18.132Z,0.49
2023-01-15T23:44:20.059Z,0.48
2023-01-15T23:47:03.261Z,0.41
2023-01-15T23:49:46.346Z,0.41
2023-01-15T23:52:29.524Z,0.41
2023-01-15T23:55:12.730Z,0.45
2023-01-15T23:57:55.871Z,0.32
